Mount Jackson, Virginia
Current Conditions -  °F | °C
As of 9:35 AM on Saturday 25 Oct 2014 (Local Time) from K8W2 Reporting Station
Clear Clear  
Wind Chill:   Ceiling: Unl
Heat Index:   Visibility: 10mi
Dew Point:   Wind: 3mph
Humidity: 70%   Direction: 200°SSW
Pressure: 30.01"   Gusts: NA
Location:  38.75°N, 78.64°W
Report Text: K8W2 251335Z AUTO 20003KT 10SM CLR 08/02 A3001 RMK AO1 T00750024
Loading
Personal Weather Stations






























Interactive Weather Map
Tropical Storm Tracking
New forecast layout! Learn more

10-Day Weather Forecast

Advertisements
Track Severe Weather on mobile